Time;durP1;ratioP1;P1;durP2;ratioP2;P2;SDS_P1;SDS_P2;PMS_P1;PMS_P2;Temp;Humidity;BMP_temperature;BMP_pressure;BME280_temperature;BME280_humidity;BME280_pressure;Samples;Min_cycle;Max_cycle;Signal;HPM_P1;HPM_P2
2023/08/18 00:00:42;;;;;;;3.08;1.08;;;17.00;1.00;;;;;;5113637;28;20031;-65
2023/08/18 00:03:08;;;;;;;2.33;1.30;;;16.40;1.00;;;;;;5112127;28;20031;-65
2023/08/18 00:05:33;;;;;;;3.28;1.33;;;16.80;1.00;;;;;;5113441;28;21382;-65
2023/08/18 00:07:59;;;;;;;5.03;1.88;;;16.60;1.00;;;;;;5113540;28;20043;-65
2023/08/18 00:10:25;;;;;;;2.20;1.30;;;16.40;1.00;;;;;;5113217;28;20560;-64
2023/08/18 00:12:50;;;;;;;4.90;1.65;;;16.40;1.00;;;;;;5113559;28;20047;-65
2023/08/18 00:15:16;;;;;;;2.92;1.40;;;16.50;1.00;;;;;;5113524;28;20035;-65
2023/08/18 00:17:42;;;;;;;2.40;1.48;;;16.20;1.00;;;;;;5113436;28;20081;-65
2023/08/18 00:20:09;;;;;;;2.67;1.45;;;16.60;1.00;;;;;;5113194;28;20043;-65
2023/08/18 00:22:34;;;;;;;2.30;1.30;;;16.50;1.00;;;;;;5113415;28;20067;-65
2023/08/18 00:25:00;;;;;;;2.00;1.10;;;16.40;3.40;;;;;;5113100;28;20063;-65
2023/08/18 00:27:26;;;;;;;2.42;1.17;;;16.50;7.10;;;;;;5113509;28;20083;-66
2023/08/18 00:29:51;;;;;;;1.90;1.20;;;16.60;11.80;;;;;;5112962;28;20452;-66
2023/08/18 00:32:17;;;;;;;2.70;1.20;;;16.90;18.40;;;;;;5113354;28;20032;-67
2023/08/18 00:34:42;;;;;;;4.13;1.73;;;16.40;17.50;;;;;;5112029;28;20036;-67
2023/08/18 00:37:08;;;;;;;2.28;1.50;;;16.20;12.40;;;;;;5113510;28;20156;-65
2023/08/18 00:39:34;;;;;;;3.47;1.38;;;16.40;20.70;;;;;;5117344;28;20042;-65
2023/08/18 00:41:59;;;;;;;5.70;1.80;;;16.40;26.90;;;;;;5117207;28;20082;-65
2023/08/18 00:44:25;;;;;;;3.45;1.63;;;16.40;20.20;;;;;;5117311;28;20032;-65
2023/08/18 00:46:51;;;;;;;4.20;1.58;;;16.20;23.60;;;;;;5117235;28;20123;-65
2023/08/18 00:49:18;;;;;;;3.28;1.70;;;16.30;29.30;;;;;;5117068;28;20044;-65
2023/08/18 00:51:45;;;;;;;4.43;1.73;;;16.40;29.00;;;;;;5116759;28;20039;-65
2023/08/18 00:54:12;;;;;;;2.95;1.63;;;16.40;26.70;;;;;;5117028;28;20436;-65
2023/08/18 00:56:38;;;;;;;6.47;1.95;;;16.40;31.20;;;;;;5117030;28;20092;-65
2023/08/18 00:59:05;;;;;;;5.00;1.58;;;16.30;36.80;;;;;;5116956;28;20089;-65
2023/08/18 01:01:32;;;;;;;4.85;1.90;;;16.30;34.50;;;;;;5116955;28;20034;-65
2023/08/18 01:03:58;;;;;;;5.43;2.10;;;16.60;35.60;;;;;;5116842;28;20040;-65
2023/08/18 01:06:24;;;;;;;2.92;1.55;;;16.40;32.50;;;;;;5116434;28;20402;-65
2023/08/18 01:08:50;;;;;;;5.50;1.90;;;16.40;32.90;;;;;;5116793;28;20047;-65
2023/08/18 01:11:51;;;;;;;4.32;1.73;;;16.40;35.30;;;;;;5116763;28;20533;-65
2023/08/18 01:14:36;;;;;;;4.40;1.80;;;16.40;35.80;;;;;;5071191;27;20043;-65
2023/08/18 01:17:11;;;;;;;5.32;1.80;;;16.40;37.70;;;;;;5116590;28;20035;-65
2023/08/18 01:19:37;;;;;;;2.80;1.58;;;16.30;36.80;;;;;;5116269;28;20043;-65
2023/08/18 01:22:06;;;;;;;2.40;1.50;;;16.60;33.80;;;;;;5116494;28;20081;-65
2023/08/18 01:24:31;;;;;;;2.50;1.60;;;16.40;33.70;;;;;;5116501;28;20074;-65
2023/08/18 01:26:57;;;;;;;3.47;1.70;;;16.40;34.20;;;;;;5116438;28;20499;-65
2023/08/18 01:29:23;;;;;;;6.47;1.88;;;16.40;38.10;;;;;;5115035;28;20122;-65
2023/08/18 01:31:57;;;;;;;3.78;1.60;;;16.40;37.70;;;;;;5116422;28;20088;-65
2023/08/18 01:34:25;;;;;;;4.28;2.08;;;16.30;37.10;;;;;;5116046;28;20035;-65
2023/08/18 01:36:53;;;;;;;2.80;1.67;;;16.10;36.70;;;;;;5116019;28;20048;-65
2023/08/18 01:39:21;;;;;;;2.58;1.60;;;16.40;38.00;;;;;;5116307;28;20402;-66
2023/08/18 01:41:49;;;;;;;3.00;1.50;;;16.40;50.20;;;;;;5116190;28;20107;-67
2023/08/18 01:44:15;;;;;;;2.45;1.55;;;16.30;43.20;;;;;;5115819;28;20088;-67
2023/08/18 01:46:41;;;;;;;4.45;1.88;;;16.30;44.10;;;;;;5114597;28;20089;-67
2023/08/18 01:49:07;;;;;;;2.03;1.20;;;16.30;45.40;;;;;;5115363;28;20039;-67
2023/08/18 01:51:33;;;;;;;3.85;1.67;;;16.60;44.20;;;;;;5114405;28;20043;-67
2023/08/18 01:53:58;;;;;;;4.00;1.70;;;16.40;42.80;;;;;;5116045;28;20039;-67
2023/08/18 01:56:24;;;;;;;2.92;1.73;;;16.30;43.50;;;;;;5114374;28;20043;-67
2023/08/18 01:58:49;;;;;;;3.42;2.03;;;16.30;43.70;;;;;;5115634;28;20174;-66
2023/08/18 02:01:15;;;;;;;5.43;2.17;;;16.30;43.50;;;;;;5115806;28;20062;-67
2023/08/18 02:03:40;;;;;;;3.20;1.60;;;16.30;45.00;;;;;;5115744;28;20471;-66
2023/08/18 02:06:06;;;;;;;3.38;1.90;;;16.00;42.80;;;;;;5115492;28;20138;-66
2023/08/18 02:08:33;;;;;;;5.32;1.90;;;16.80;45.10;;;;;;5115555;28;20467;-67
2023/08/18 02:11:04;;;;;;;4.05;2.00;;;16.30;44.90;;;;;;5115632;28;20122;-67
2023/08/18 02:13:31;;;;;;;3.28;1.67;;;16.40;46.30;;;;;;5115581;28;20126;-66
2023/08/18 02:15:56;;;;;;;5.25;2.35;;;16.90;44.60;;;;;;5114288;28;20418;-67
2023/08/18 02:18:22;;;;;;;5.22;1.80;;;16.60;45.40;;;;;;5115582;28;20031;-65
2023/08/18 02:20:54;;;;;;;5.78;2.42;;;16.40;52.80;;;;;;5113883;28;20065;-64
2023/08/18 02:23:20;;;;;;;5.35;2.05;;;16.00;51.00;;;;;;5113740;28;20055;-65
2023/08/18 02:25:45;;;;;;;2.92;2.08;;;16.40;53.60;;;;;;5115103;28;20036;-65
2023/08/18 02:28:11;;;;;;;3.45;2.13;;;16.30;54.10;;;;;;5115208;28;20111;-66
2023/08/18 02:30:36;;;;;;;3.65;2.58;;;16.30;54.80;;;;;;5114960;28;20399;-65
2023/08/18 02:33:03;;;;;;;6.30;2.20;;;16.70;56.00;;;;;;5115194;28;20114;-65
2023/08/18 02:35:28;;;;;;;3.50;2.40;;;16.30;59.50;;;;;;5115162;28;20043;-65
2023/08/18 02:37:54;;;;;;;128.48;57.35;;;16.00;57.50;;;;;;5115105;28;20110;-65
2023/08/18 02:40:19;;;;;;;8.95;2.42;;;16.80;62.10;;;;;;5113460;28;20066;-64
2023/08/18 02:42:45;;;;;;;14.90;5.35;;;16.30;66.80;;;;;;5114997;28;20065;-64
2023/08/18 02:45:11;;;;;;;5.50;2.28;;;16.30;63.50;;;;;;5114636;28;20506;-65
2023/08/18 02:47:38;;;;;;;4.13;2.42;;;16.30;65.70;;;;;;5114995;28;20035;-65
2023/08/18 02:50:07;;;;;;;3.33;2.10;;;16.20;64.60;;;;;;5114411;28;20049;-65
2023/08/18 02:52:33;;;;;;;5.22;2.50;;;16.30;68.40;;;;;;5114779;28;20036;-65
2023/08/18 02:54:58;;;;;;;3.95;2.42;;;16.30;69.50;;;;;;5114849;28;20502;-64
2023/08/18 02:57:24;;;;;;;5.55;2.88;;;16.10;72.10;;;;;;5114642;28;20028;-65
2023/08/18 02:59:49;;;;;;;5.05;2.40;;;16.60;74.70;;;;;;5114656;28;20047;-65
2023/08/18 03:02:15;;;;;;;6.32;2.80;;;16.60;75.40;;;;;;5113645;28;20044;-65
2023/08/18 03:04:40;;;;;;;4.07;2.45;;;16.20;74.10;;;;;;5114266;28;20092;-65
2023/08/18 03:07:06;;;;;;;5.20;2.55;;;16.20;74.90;;;;;;5114146;28;20096;-65
2023/08/18 03:09:32;;;;;;;5.43;2.90;;;16.20;74.10;;;;;;5114092;28;20050;-65
2023/08/18 03:11:57;;;;;;;4.10;3.00;;;16.20;75.70;;;;;;5114392;28;20028;-65
2023/08/18 03:14:23;;;;;;;50.67;47.13;;;16.30;75.80;;;;;;5114361;28;20528;-65
2023/08/18 03:16:48;;;;;;;71.65;48.22;;;16.30;76.20;;;;;;5114381;28;20050;-65
2023/08/18 03:19:14;;;;;;;17.77;16.20;;;16.20;80.70;;;;;;5114121;28;20067;-65
2023/08/18 03:21:39;;;;;;;38.30;36.33;;;16.20;81.90;;;;;;5114292;28;20046;-64
2023/08/18 03:24:05;;;;;;;41.90;39.85;;;16.00;83.30;;;;;;5114233;28;20062;-64
2023/08/18 03:26:31;;;;;;;19.08;17.77;;;16.30;80.50;;;;;;5114008;28;20036;-64
2023/08/18 03:28:57;;;;;;;17.60;16.70;;;16.40;83.20;;;;;;5114455;28;20050;-67
2023/08/18 03:31:23;;;;;;;19.48;18.33;;;16.00;85.80;;;;;;5112443;28;20508;-66
2023/08/18 03:33:48;;;;;;;20.83;19.60;;;16.30;84.40;;;;;;5113751;28;20118;-67
2023/08/18 03:36:14;;;;;;;20.00;18.95;;;16.30;84.20;;;;;;5113944;28;20027;-67
2023/08/18 03:38:39;;;;;;;18.67;17.48;;;16.30;88.30;;;;;;5114133;28;20498;-66
2023/08/18 03:41:06;;;;;;;21.92;20.70;;;16.30;85.80;;;;;;5113547;28;20039;-67
2023/08/18 03:43:35;;;;;;;456.90;180.73;;;16.50;85.30;;;;;;5113863;28;20039;-67
2023/08/18 03:46:20;;;;;;;18.83;3.22;;;16.20;87.40;;;;;;5113574;28;20047;-67
2023/08/18 03:48:45;;;;;;;51.42;6.85;;;16.30;90.80;;;;;;5113544;28;20047;-65
2023/08/18 03:51:11;;;;;;;3.03;2.30;;;16.70;90.00;;;;;;5113434;28;20122;-65
2023/08/18 03:53:37;;;;;;;5.45;2.63;;;16.20;91.60;;;;;;5113742;28;20040;-65
2023/08/18 03:56:02;;;;;;;20.83;18.98;;;16.20;92.10;;;;;;5113670;28;20490;-65
2023/08/18 03:58:28;;;;;;;4.28;2.75;;;16.30;91.10;;;;;;5113682;28;20039;-65
2023/08/18 04:01:06;;;;;;;3.55;2.30;;;16.00;91.10;;;;;;5113803;28;20057;-65
2023/08/18 04:03:33;;;;;;;10.00;9.35;;;16.10;91.40;;;;;;5113648;28;20552;-65
2023/08/18 04:05:58;;;;;;;3.88;2.75;;;16.30;91.20;;;;;;5113410;28;20044;-65
2023/08/18 04:08:24;;;;;;;7.25;3.72;;;16.20;91.80;;;;;;5113474;28;20048;-64
2023/08/18 04:10:50;;;;;;;4.20;2.38;;;16.30;93.50;;;;;;5113576;28;20040;-65
2023/08/18 04:13:16;;;;;;;6.45;3.58;;;16.20;94.40;;;;;;5115942;28;20031;-65
2023/08/18 04:15:41;;;;;;;3.17;2.50;;;16.20;94.30;;;;;;5118747;28;20032;-65
2023/08/18 04:18:07;;;;;;;12.75;12.13;;;16.20;94.90;;;;;;5120360;28;20441;-65
2023/08/18 04:20:34;;;;;;;4.90;3.08;;;16.30;95.40;;;;;;5120332;28;20035;-65
2023/08/18 04:23:00;;;;;;;5.38;2.95;;;16.20;95.70;;;;;;5120352;28;20036;-64
2023/08/18 04:25:25;;;;;;;8.02;2.67;;;16.20;95.80;;;;;;5120276;28;20036;-65
2023/08/18 04:27:51;;;;;;;3.88;2.47;;;16.20;96.90;;;;;;5120270;28;20417;-65
2023/08/18 04:30:16;;;;;;;5.25;2.78;;;16.20;97.80;;;;;;5120216;28;20031;-65
2023/08/18 04:32:42;;;;;;;4.25;2.45;;;16.20;97.60;;;;;;5119895;28;20085;-65
2023/08/18 04:35:08;;;;;;;6.07;2.80;;;16.80;98.00;;;;;;5120179;28;20028;-65
2023/08/18 04:37:33;;;;;;;5.10;3.08;;;16.20;98.50;;;;;;5120093;28;20028;-65
2023/08/18 04:39:59;;;;;;;4.65;3.08;;;16.20;99.20;;;;;;5120131;28;20047;-64
2023/08/18 04:42:24;;;;;;;4.18;2.50;;;16.20;98.50;;;;;;5120063;28;20495;-65
2023/08/18 04:44:50;;;;;;;5.07;2.90;;;16.30;99.00;;;;;;5119757;28;20047;-65
2023/08/18 04:47:17;;;;;;;4.82;2.97;;;16.30;98.90;;;;;;5120101;28;20104;-65
2023/08/18 04:49:43;;;;;;;5.28;3.28;;;16.10;99.90;;;;;;5120131;28;20032;-65
2023/08/18 04:52:10;;;;;;;5.18;3.17;;;16.30;99.90;;;;;;5119962;28;20040;-65
2023/08/18 04:54:35;;;;;;;4.97;2.70;;;16.20;99.90;;;;;;5119706;28;20043;-64
2023/08/18 04:57:03;;;;;;;4.05;3.08;;;16.30;99.90;;;;;;5119943;28;20089;-65
2023/08/18 04:59:29;;;;;;;6.60;3.50;;;16.20;99.90;;;;;;5119799;28;20043;-66
2023/08/18 05:01:55;;;;;;;5.85;3.65;;;16.20;99.90;;;;;;5119920;28;20032;-66
2023/08/18 05:04:21;;;;;;;6.05;3.08;;;16.30;99.90;;;;;;5119522;28;20127;-66
2023/08/18 05:06:47;;;;;;;3.38;2.47;;;16.20;99.90;;;;;;5119576;28;20066;-66
2023/08/18 05:09:13;;;;;;;6.90;3.58;;;16.20;99.90;;;;;;5119786;28;20035;-66
2023/08/18 05:11:38;;;;;;;4.03;2.47;;;16.20;99.90;;;;;;5119873;28;20071;-66
2023/08/18 05:14:04;;;;;;;6.95;3.70;;;16.20;99.90;;;;;;5118501;28;20119;-66
2023/08/18 05:16:30;;;;;;;5.68;3.63;;;16.20;99.90;;;;;;5119819;28;20047;-70
2023/08/18 05:18:55;;;;;;;4.50;2.45;;;16.30;99.90;;;;;;5118210;28;20486;-67
2023/08/18 05:21:21;;;;;;;5.97;3.50;;;16.10;99.90;;;;;;5119466;28;20478;-67
2023/08/18 05:23:47;;;;;;;8.30;3.83;;;16.00;99.90;;;;;;5118759;28;20043;-67
2023/08/18 05:26:13;;;;;;;9.38;3.67;;;16.30;99.90;;;;;;5115688;28;20478;-67
2023/08/18 05:28:39;;;;;;;9.15;3.92;;;16.30;99.90;;;;;;5116421;28;20521;-67
2023/08/18 05:31:07;;;;;;;5.47;3.33;;;16.20;99.90;;;;;;5116070;28;20044;-67
2023/08/18 05:33:32;;;;;;;5.35;3.17;;;16.30;99.90;;;;;;5116325;28;20061;-67
2023/08/18 05:35:59;;;;;;;4.65;3.65;;;16.20;99.90;;;;;;5116269;28;20031;-67
2023/08/18 05:38:25;;;;;;;8.63;4.20;;;16.00;99.90;;;;;;5116309;28;20119;-67
2023/08/18 05:40:52;;;;;;;6.93;4.07;;;16.30;99.90;;;;;;5116328;28;20514;-71
2023/08/18 05:43:18;;;;;;;7.47;3.50;;;15.90;99.90;;;;;;5115845;28;20040;-66
2023/08/18 05:45:46;;;;;;;5.60;3.78;;;16.20;99.90;;;;;;5116113;28;20038;-67
2023/08/18 05:48:12;;;;;;;5.63;4.00;;;16.20;99.90;;;;;;5115948;28;20455;-66
2023/08/18 05:50:38;;;;;;;4.80;3.38;;;16.50;99.90;;;;;;5116124;28;20065;-66
2023/08/18 05:53:04;;;;;;;6.55;3.85;;;16.40;99.90;;;;;;5116005;28;20039;-64
2023/08/18 05:55:30;;;;;;;6.43;2.83;;;16.20;99.90;;;;;;5116006;28;20133;-68
2023/08/18 05:58:01;;;;;;;5.82;3.65;;;16.30;99.90;;;;;;5114319;28;20403;-65
2023/08/18 06:00:28;;;;;;;10.25;4.40;;;16.30;99.90;;;;;;5115973;28;20050;-66
2023/08/18 06:02:54;;;;;;;5.57;4.00;;;16.50;99.90;;;;;;5114416;28;20039;-65
2023/08/18 06:05:20;;;;;;;6.68;3.60;;;16.40;99.90;;;;;;5115539;28;20044;-64
2023/08/18 06:07:46;;;;;;;8.50;3.55;;;16.50;99.90;;;;;;5115727;28;20047;-64
2023/08/18 06:10:12;;;;;;;4.70;3.15;;;16.80;99.90;;;;;;5114475;28;20042;-66
2023/08/18 06:12:38;;;;;;;5.53;3.55;;;16.60;99.90;;;;;;5114068;28;20097;-66
2023/08/18 06:15:05;;;;;;;9.73;3.95;;;16.80;99.90;;;;;;5115280;28;20065;-66
2023/08/18 06:17:30;;;;;;;5.03;3.08;;;16.80;99.90;;;;;;5115573;28;20040;-66
2023/08/18 06:19:57;;;;;;;6.88;3.47;;;16.60;99.90;;;;;;5114245;28;20134;-66
2023/08/18 06:22:23;;;;;;;6.28;3.25;;;17.00;99.90;;;;;;5115018;28;20043;-66
2023/08/18 06:24:49;;;;;;;8.27;3.70;;;16.90;99.90;;;;;;5115435;28;20043;-66
2023/08/18 06:27:14;;;;;;;8.65;3.47;;;17.20;99.90;;;;;;5115252;28;20047;-66
2023/08/18 06:29:40;;;;;;;5.45;3.28;;;17.40;99.90;;;;;;5113574;28;20548;-67
2023/08/18 06:32:05;;;;;;;6.85;3.25;;;17.00;99.90;;;;;;5115294;28;20380;-66
2023/08/18 06:34:31;;;;;;;7.40;3.80;;;16.60;99.90;;;;;;5115212;28;20071;-66
2023/08/18 06:36:57;;;;;;;5.38;3.35;;;16.90;99.90;;;;;;5114964;28;20119;-66
2023/08/18 06:39:22;;;;;;;6.10;3.42;;;17.20;99.90;;;;;;5115056;28;20043;-66
2023/08/18 06:41:48;;;;;;;5.45;3.20;;;17.50;99.90;;;;;;5114994;28;20047;-66
2023/08/18 06:44:14;;;;;;;8.48;3.70;;;17.30;99.90;;;;;;5114956;28;20122;-66
2023/08/18 06:46:39;;;;;;;6.57;2.95;;;17.40;99.90;;;;;;5114881;28;20471;-66
2023/08/18 06:49:05;;;;;;;6.38;3.47;;;16.90;99.90;;;;;;5114807;28;20089;-66
2023/08/18 06:51:31;;;;;;;5.80;2.88;;;17.50;99.90;;;;;;5113418;28;20577;-71
2023/08/18 06:53:56;;;;;;;4.30;2.95;;;17.80;99.90;;;;;;5114773;28;20531;-72
2023/08/18 06:56:22;;;;;;;5.85;3.15;;;17.20;99.90;;;;;;5114593;28;20045;-72
2023/08/18 06:58:48;;;;;;;5.18;2.83;;;17.20;99.90;;;;;;5113104;28;20445;-71
2023/08/18 07:01:13;;;;;;;6.72;3.47;;;17.30;99.90;;;;;;5112888;28;20407;-72
2023/08/18 07:03:39;;;;;;;6.63;3.65;;;17.30;99.90;;;;;;5113106;28;20047;-71
2023/08/18 07:06:04;;;;;;;6.88;3.25;;;17.20;99.90;;;;;;5113044;28;20054;-66
2023/08/18 07:08:30;;;;;;;9.55;3.60;;;17.10;99.90;;;;;;5114465;28;20050;-66
2023/08/18 07:10:56;;;;;;;8.52;3.78;;;17.20;99.90;;;;;;5114435;28;20036;-67
2023/08/18 07:13:22;;;;;;;12.40;4.13;;;17.20;99.90;;;;;;5114359;28;20115;-67
2023/08/18 07:15:48;;;;;;;15.52;5.35;;;17.20;99.90;;;;;;5114408;28;20039;-67
2023/08/18 07:18:14;;;;;;;8.38;4.45;;;17.30;99.90;;;;;;5114238;28;20497;-67
2023/08/18 07:20:46;;;;;;;11.02;4.47;;;17.30;99.90;;;;;;5114391;28;20086;-65
2023/08/18 07:23:12;;;;;;;13.80;5.25;;;17.20;99.90;;;;;;5114243;28;20056;-65
2023/08/18 07:25:41;;;;;;;10.23;4.60;;;17.30;99.90;;;;;;5112568;28;20402;-65
2023/08/18 07:28:07;;;;;;;10.43;4.50;;;17.30;99.90;;;;;;5114124;28;20043;-65
2023/08/18 07:30:33;;;;;;;8.65;5.45;;;17.30;99.90;;;;;;5114253;28;20118;-65
2023/08/18 07:32:59;;;;;;;9.05;3.83;;;17.40;99.90;;;;;;5095412;28;20058;-66
2023/08/18 07:35:24;;;;;;;11.57;4.45;;;17.40;99.90;;;;;;5113908;28;20036;-65
2023/08/18 07:37:51;;;;;;;9.75;4.25;;;17.40;99.90;;;;;;5113707;28;20126;-65
2023/08/18 07:40:17;;;;;;;12.15;4.68;;;17.50;99.90;;;;;;5113656;28;20051;-70
2023/08/18 07:42:46;;;;;;;11.98;4.68;;;17.50;99.90;;;;;;5112177;28;20406;-64
2023/08/18 07:45:11;;;;;;;8.98;3.80;;;17.60;99.90;;;;;;5113765;28;20071;-72
2023/08/18 07:47:38;;;;;;;7.95;4.32;;;17.60;99.90;;;;;;5111625;28;20483;-73
2023/08/18 07:50:08;;;;;;;10.52;4.32;;;17.60;99.90;;;;;;5112096;28;20043;-66
2023/08/18 07:52:34;;;;;;;10.18;4.18;;;17.70;99.90;;;;;;5113797;28;20032;-67
2023/08/18 07:55:01;;;;;;;7.22;3.55;;;17.60;99.90;;;;;;5113737;28;20039;-73
2023/08/18 07:57:27;;;;;;;11.05;4.22;;;17.70;99.90;;;;;;5094954;28;20392;-67
2023/08/18 07:59:53;;;;;;;8.20;3.53;;;17.70;99.90;;;;;;5113644;28;20038;-67
2023/08/18 08:02:18;;;;;;;9.80;3.38;;;17.80;99.90;;;;;;5112078;28;20067;-67
2023/08/18 08:04:44;;;;;;;7.13;3.22;;;17.80;99.90;;;;;;5113524;28;20036;-66
2023/08/18 08:07:10;;;;;;;10.88;3.10;;;17.90;99.90;;;;;;5113140;28;20502;-68
2023/08/18 08:09:35;;;;;;;6.32;3.33;;;18.00;99.90;;;;;;5113303;28;20105;-66
2023/08/18 08:12:02;;;;;;;5.45;3.05;;;17.90;99.90;;;;;;5113128;28;20470;-67
2023/08/18 08:14:27;;;;;;;8.15;3.95;;;17.90;99.90;;;;;;5111859;28;20044;-66
2023/08/18 08:16:53;;;;;;;9.73;4.03;;;17.90;99.90;;;;;;5113384;28;20141;-66
2023/08/18 08:19:18;;;;;;;8.07;3.53;;;17.90;99.90;;;;;;5113135;28;20502;-66
2023/08/18 08:21:44;;;;;;;10.30;4.63;;;17.90;99.90;;;;;;5111824;28;20065;-66
2023/08/18 08:24:10;;;;;;;9.00;4.05;;;17.90;99.90;;;;;;5112999;28;20507;-66
2023/08/18 08:26:35;;;;;;;7.97;3.83;;;17.90;99.90;;;;;;5113382;28;20040;-66
2023/08/18 08:29:01;;;;;;;7.68;4.47;;;17.90;99.90;;;;;;5111666;28;20040;-66
2023/08/18 08:31:27;;;;;;;7.57;3.53;;;17.90;99.90;;;;;;5113348;28;20044;-66
2023/08/18 08:33:52;;;;;;;9.43;3.70;;;17.90;99.90;;;;;;5113359;28;20040;-66
2023/08/18 08:36:18;;;;;;;7.20;4.63;;;18.00;99.90;;;;;;5113175;28;20075;-67
2023/08/18 08:38:43;;;;;;;7.55;3.58;;;18.00;99.90;;;;;;5113245;28;20050;-66
2023/08/18 08:41:09;;;;;;;6.57;3.60;;;18.10;99.90;;;;;;5113371;28;20031;-69
2023/08/18 08:43:35;;;;;;;7.00;3.15;;;18.20;99.90;;;;;;5113154;28;20410;-69
2023/08/18 08:46:01;;;;;;;8.35;4.03;;;18.10;99.90;;;;;;5113060;28;20039;-68
2023/08/18 08:48:32;;;;;;;6.28;3.95;;;;;;;;;;5113195;28;20036;-69
2023/08/18 08:51:01;;;;;;;6.95;3.53;;;18.40;99.90;;;;;;5113265;28;20035;-68
2023/08/18 08:53:35;;;;;;;9.00;3.83;;;18.40;99.90;;;;;;5113104;28;20035;-68
2023/08/18 08:56:02;;;;;;;6.90;3.97;;;18.60;99.90;;;;;;5111618;28;20036;-72
2023/08/18 08:58:31;;;;;;;7.50;4.28;;;18.80;99.10;;;;;;5111333;28;20040;-69
2023/08/18 09:01:01;;;;;;;7.18;4.03;;;18.80;95.60;;;;;;5114574;28;20088;-66
2023/08/18 09:03:28;;;;;;;6.82;4.03;;;18.80;93.00;;;;;;5116961;28;20040;-66
2023/08/18 09:05:54;;;;;;;8.48;4.65;;;18.90;91.40;;;;;;5116642;28;20047;-67
2023/08/18 09:08:20;;;;;;;6.72;4.00;;;19.00;90.90;;;;;;5116561;28;20050;-66
2023/08/18 09:10:45;;;;;;;7.10;3.85;;;19.10;91.10;;;;;;5116836;28;20039;-66
2023/08/18 09:13:12;;;;;;;7.82;4.30;;;19.20;86.60;;;;;;5116731;28;20456;-66
2023/08/18 09:15:44;;;;;;;6.43;3.70;;;19.30;85.20;;;;;;5116570;28;20070;-67
2023/08/18 09:18:13;;;;;;;5.82;3.55;;;19.30;92.20;;;;;;5116520;28;20062;-66
2023/08/18 09:20:41;;;;;;;9.63;4.25;;;19.80;88.00;;;;;;5116571;28;20079;-66
2023/08/18 09:23:06;;;;;;;8.48;4.07;;;19.70;80.90;;;;;;5116228;28;20123;-66
2023/08/18 09:25:35;;;;;;;6.45;3.75;;;19.80;68.90;;;;;;5116431;28;20086;-65
2023/08/18 09:28:04;;;;;;;13.98;9.25;;;19.60;61.80;;;;;;5116447;28;20050;-65
2023/08/18 09:30:33;;;;;;;11.45;5.47;;;19.70;58.30;;;;;;5116272;28;20475;-65
2023/08/18 09:33:03;;;;;;;8.20;4.93;;;20.10;57.30;;;;;;5116352;28;20528;-66
2023/08/18 09:35:34;;;;;;;6.90;3.90;;;19.70;43.80;;;;;;5116313;28;20538;-66
2023/08/18 09:38:00;;;;;;;7.97;4.22;;;19.80;46.60;;;;;;5116252;28;20035;-66
2023/08/18 09:40:26;;;;;;;6.88;3.58;;;19.80;36.80;;;;;;5116186;28;20051;-66
2023/08/18 09:42:52;;;;;;;7.93;3.63;;;19.80;35.20;;;;;;5116190;28;20402;-67
2023/08/18 09:45:23;;;;;;;8.45;4.10;;;19.90;34.00;;;;;;5115908;28;20042;-66
2023/08/18 09:47:52;;;;;;;;;;;20.00;29.80;;;;;;5115054;28;20576;-67
2023/08/18 09:50:20;;;;;;;6.18;3.60;;;20.00;24.50;;;;;;5116070;28;20283;-69
2023/08/18 09:52:51;;;;;;;7.18;4.10;;;20.10;28.20;;;;;;5114386;28;20032;-69
2023/08/18 09:55:19;;;;;;;;;;;20.20;24.10;;;;;;5116404;28;20097;-69
2023/08/18 09:57:58;;;;;;;7.60;3.28;;;20.30;2.90;;;;;;5115917;28;20290;-69
2023/08/18 10:00:25;;;;;;;7.20;3.97;;;20.50;9.80;;;;;;5114331;28;20035;-69
2023/08/18 10:02:55;;;;;;;4.95;3.58;;;20.30;1.00;;;;;;5115380;28;20114;-68
2023/08/18 10:05:21;;;;;;;7.82;3.88;;;20.30;1.00;;;;;;5113991;28;20122;-69
2023/08/18 10:07:47;;;;;;;7.47;3.72;;;20.40;1.00;;;;;;5115375;28;20039;-69
2023/08/18 10:10:14;;;;;;;7.13;4.32;;;20.40;1.00;;;;;;5114747;28;20051;-67
2023/08/18 10:12:43;;;;;;;4.80;3.50;;;20.50;1.00;;;;;;5115459;28;20044;-67
2023/08/18 10:15:09;;;;;;;4.10;3.53;;;20.50;1.00;;;;;;5115478;28;20044;-66
2023/08/18 10:17:35;;;;;;;5.75;3.70;;;20.50;1.00;;;;;;5115407;28;20042;-67
2023/08/18 10:20:00;;;;;;;5.55;3.45;;;20.60;1.00;;;;;;5115609;28;20035;-68
2023/08/18 10:22:28;;;;;;;5.40;3.85;;;20.60;1.00;;;;;;5115089;28;20035;-69
2023/08/18 10:24:55;;;;;;;7.50;3.10;;;20.60;1.00;;;;;;5115345;28;20043;-74
2023/08/18 10:27:26;;;;;;;6.20;4.20;;;20.90;1.00;;;;;;5113799;28;20135;-69
2023/08/18 10:29:57;;;;;;;5.55;3.83;;;20.60;1.00;;;;;;5115128;28;20078;-68
2023/08/18 10:32:23;;;;;;;;;;;20.70;1.00;;;;;;5115643;28;20115;-69
2023/08/18 10:34:50;;;;;;;5.95;3.42;;;20.70;1.00;;;;;;5113636;28;19951;-68
2023/08/18 10:37:20;;;;;;;4.47;3.65;;;20.70;1.00;;;;;;5114766;28;20036;-68
2023/08/18 10:39:48;;;;;;;8.03;4.03;;;20.70;1.00;;;;;;5115006;28;20128;-68
2023/08/18 10:42:15;;;;;;;5.90;3.20;;;20.80;1.00;;;;;;5114691;28;20043;-69
2023/08/18 10:45:21;;;;;;;7.15;3.88;;;21.50;1.00;;;;;;5114970;28;20042;-75
2023/08/18 10:47:46;;;;;;;6.38;3.95;;;21.10;1.00;;;;;;5114932;28;20046;-69
2023/08/18 10:50:14;;;;;;;5.28;3.67;;;21.80;1.00;;;;;;5096231;28;20402;-69
2023/08/18 10:52:40;;;;;;;6.88;3.75;;;21.30;1.00;;;;;;5114876;28;20562;-68
2023/08/18 10:55:06;;;;;;;5.07;3.95;;;21.80;1.00;;;;;;5114761;28;20040;-69
2023/08/18 10:57:33;;;;;;;6.47;3.90;;;21.60;1.00;;;;;;5114677;28;20077;-68
2023/08/18 10:59:59;;;;;;;4.95;3.75;;;21.60;1.00;;;;;;5114502;28;20039;-68
2023/08/18 11:02:25;;;;;;;4.40;3.25;;;21.60;1.00;;;;;;5114626;28;20036;-68
2023/08/18 11:04:53;;;;;;;6.20;4.60;;;21.70;1.00;;;;;;5114519;28;20047;-69
2023/08/18 11:07:19;;;;;;;6.82;4.47;;;21.80;1.00;;;;;;5114134;28;20057;-68
2023/08/18 11:09:45;;;;;;;5.65;4.07;;;21.80;99.90;;;;;;5114125;28;20047;-68
2023/08/18 11:12:10;;;;;;;7.32;4.68;;;22.40;99.90;;;;;;5114344;28;20127;-70
2023/08/18 11:14:36;;;;;;;5.40;4.15;;;22.00;99.90;;;;;;5114386;28;20081;-69
2023/08/18 11:17:02;;;;;;;5.88;4.13;;;;;;;;;;5114333;28;20036;-69
2023/08/18 11:19:27;;;;;;;6.13;4.25;;;22.10;99.90;;;;;;5114240;28;20079;-70
2023/08/18 11:21:57;;;;;;;6.22;4.28;;;22.10;99.90;;;;;;5113684;28;20387;-69
2023/08/18 11:24:24;;;;;;;5.68;4.53;;;22.10;99.90;;;;;;5112422;28;20089;-68
2023/08/18 11:26:50;;;;;;;7.53;4.97;;;22.10;99.90;;;;;;5112883;28;20093;-68
2023/08/18 11:29:15;;;;;;;8.82;4.95;;;22.10;99.90;;;;;;5113737;28;20067;-69
2023/08/18 11:31:45;;;;;;;6.93;4.90;;;22.00;99.90;;;;;;5113914;28;20053;-67
2023/08/18 11:34:11;;;;;;;7.73;5.33;;;22.00;99.90;;;;;;5114107;28;20375;-67
2023/08/18 11:36:39;;;;;;;9.30;4.70;;;22.00;99.90;;;;;;5114109;28;20049;-66
2023/08/18 11:39:08;;;;;;;6.32;5.10;;;21.90;99.90;;;;;;5113666;28;20043;-65
2023/08/18 11:41:43;;;;;;;7.40;5.03;;;21.80;99.90;;;;;;5113977;28;20035;-66
2023/08/18 11:44:10;;;;;;;6.88;4.53;;;21.90;99.90;;;;;;5113554;28;20036;-66
2023/08/18 11:46:36;;;;;;;6.25;4.70;;;;;;;;;;5113880;28;20074;-66
2023/08/18 11:49:11;;;;;;;9.35;5.75;;;21.90;99.90;;;;;;5113760;28;20040;-68
2023/08/18 11:51:37;;;;;;;8.20;5.80;;;22.30;99.90;;;;;;5113783;28;20039;-68
2023/08/18 11:54:11;;;;;;;8.93;5.50;;;22.90;99.90;;;;;;5113820;28;20360;-70
2023/08/18 11:56:38;;;;;;;8.88;6.28;;;22.10;99.90;;;;;;5113730;28;20106;-68
2023/08/18 11:59:03;;;;;;;13.18;6.97;;;22.40;99.90;;;;;;5113639;28;20036;-68
2023/08/18 12:01:35;;;;;;;7.82;5.60;;;22.50;99.90;;;;;;5112180;28;20093;-68
2023/08/18 12:04:01;;;;;;;12.32;6.38;;;22.80;99.90;;;;;;5113667;28;20066;-68
2023/08/18 12:06:26;;;;;;;9.02;6.10;;;23.00;99.90;;;;;;5113301;28;20047;-70
2023/08/18 12:08:52;;;;;;;8.82;5.85;;;23.20;99.90;;;;;;5111875;28;20062;-71
2023/08/18 12:11:18;;;;;;;7.00;5.45;;;23.50;99.90;;;;;;5113645;28;20039;-71
2023/08/18 12:13:43;;;;;;;7.90;5.55;;;23.50;1.00;;;;;;5113529;28;20035;-71
2023/08/18 12:16:09;;;;;;;7.78;5.32;;;23.60;99.90;;;;;;5113167;28;20431;-71
2023/08/18 12:18:35;;;;;;;9.10;6.03;;;23.80;99.90;;;;;;5113137;28;20036;-71
2023/08/18 12:21:00;;;;;;;10.93;6.72;;;23.90;99.90;;;;;;5111959;28;20035;-71
2023/08/18 12:23:26;;;;;;;9.32;6.55;;;24.00;1.00;;;;;;5113476;28;20035;-71
2023/08/18 12:25:52;;;;;;;8.32;5.85;;;24.10;99.90;;;;;;5113046;28;20031;-72
2023/08/18 12:28:18;;;;;;;10.18;5.93;;;24.30;99.90;;;;;;5113100;28;20040;-72
2023/08/18 12:30:43;;;;;;;7.20;5.97;;;24.50;99.90;;;;;;5113367;28;20394;-71
2023/08/18 12:33:09;;;;;;;8.85;6.43;;;;;;;;;;5113078;28;20054;-72
2023/08/18 12:35:35;;;;;;;7.30;5.15;;;24.50;99.90;;;;;;5117425;28;20069;-71
2023/08/18 12:38:01;;;;;;;7.80;6.35;;;24.50;99.90;;;;;;5115767;28;20093;-71
2023/08/18 12:40:26;;;;;;;7.85;5.53;;;24.40;99.90;;;;;;5117082;28;20517;-70
2023/08/18 12:42:52;;;;;;;7.18;5.28;;;24.50;99.90;;;;;;5116069;28;20047;-71
2023/08/18 12:45:19;;;;;;;7.78;5.63;;;24.50;99.90;;;;;;5117279;28;20039;-70